createdAt,value
2023-02-09T00:01:28.897Z,79.90
2023-02-09T00:03:56.657Z,80.08
2023-02-09T00:06:25.037Z,80.29
2023-02-09T00:08:53.856Z,80.87
2023-02-09T00:11:45.270Z,81.16
2023-02-09T00:14:12.438Z,81.57
2023-02-09T00:16:40.468Z,81.71
2023-02-09T00:19:08.122Z,81.58
2023-02-09T00:21:35.645Z,81.08
2023-02-09T00:24:03.167Z,80.73
2023-02-09T00:26:32.141Z,81.07
2023-02-09T00:28:59.749Z,80.75
2023-02-09T00:31:27.747Z,80.16
2023-02-09T00:33:55.282Z,79.88
2023-02-09T00:36:22.816Z,79.82
2023-02-09T00:38:50.332Z,80.11
2023-02-09T00:41:18.361Z,79.78
2023-02-09T00:43:47.209Z,79.75
2023-02-09T00:46:14.716Z,79.97
2023-02-09T00:48:42.212Z,79.75
2023-02-09T00:51:09.722Z,79.11
2023-02-09T00:53:37.214Z,79.10
2023-02-09T00:56:05.097Z,78.64
2023-02-09T00:58:32.572Z,77.89
2023-02-09T01:01:01.449Z,78.46
2023-02-09T01:03:28.990Z,78.26
2023-02-09T01:05:59.777Z,77.71
2023-02-09T01:08:27.314Z,77.34
2023-02-09T01:10:54.905Z,77.06
2023-02-09T01:13:22.455Z,77.91
2023-02-09T01:15:49.994Z,78.16
2023-02-09T01:18:18.932Z,78.18
2023-02-09T01:20:46.713Z,77.80
2023-02-09T01:23:14.407Z,77.42
2023-02-09T01:25:41.967Z,77.80
2023-02-09T01:28:09.545Z,77.86
2023-02-09T01:30:37.116Z,77.95
2023-02-09T01:33:04.675Z,77.92
2023-02-09T01:35:33.515Z,77.41
2023-02-09T01:38:01.028Z,77.75
2023-02-09T01:40:28.525Z,77.75
2023-02-09T01:42:55.987Z,77.67
2023-02-09T01:45:28.997Z,77.69
2023-02-09T01:48:00.023Z,77.77
2023-02-09T01:50:28.830Z,77.67
2023-02-09T01:52:57.791Z,77.09
2023-02-09T01:55:27.080Z,77.72
2023-02-09T01:57:57.427Z,77.54
2023-02-09T02:00:25.724Z,77.32
2023-02-09T02:02:55.854Z,77.72
2023-02-09T02:05:23.819Z,77.78
2023-02-09T02:07:57.882Z,78.88
2023-02-09T02:10:25.814Z,80.50
2023-02-09T02:12:54.381Z,81.12
2023-02-09T02:15:23.202Z,81.30
2023-02-09T02:18:03.440Z,80.96
2023-02-09T02:21:00.258Z,80.18
2023-02-09T02:23:31.810Z,80.29
2023-02-09T02:26:36.568Z,80.20
2023-02-09T02:29:30.717Z,81.19
2023-02-09T02:32:07.162Z,82.53
2023-02-09T02:34:43.473Z,82.54
2023-02-09T02:37:17.422Z,82.58
2023-02-09T02:39:51.775Z,82.40
2023-02-09T02:42:41.023Z,82.41
2023-02-09T02:45:13.326Z,82.11
2023-02-09T02:47:43.692Z,80.30
2023-02-09T02:50:13.678Z,80.58
2023-02-09T02:52:43.713Z,82.06
2023-02-09T02:55:15.188Z,82.58
2023-02-09T02:57:44.599Z,82.31
2023-02-09T03:00:14.894Z,81.77
2023-02-09T03:02:45.294Z,82.09
2023-02-09T03:05:12.912Z,81.19
2023-02-09T03:07:40.395Z,81.46
2023-02-09T03:10:26.851Z,81.54
2023-02-09T03:13:02.778Z,82.65
2023-02-09T03:15:34.281Z,82.49
2023-02-09T03:18:15.351Z,82.47
2023-02-09T03:20:45.004Z,82.33
2023-02-09T03:23:17.186Z,82.67
2023-02-09T03:25:46.625Z,83.27
2023-02-09T03:28:18.219Z,83.22
2023-02-09T03:30:49.656Z,83.45
2023-02-09T03:33:23.090Z,83.71
2023-02-09T03:35:53.267Z,83.06
2023-02-09T03:38:20.735Z,84.50
2023-02-09T03:40:48.505Z,84.68
2023-02-09T03:43:16.000Z,84.42
2023-02-09T03:45:43.515Z,84.01
2023-02-09T03:48:10.980Z,84.45
2023-02-09T03:50:39.800Z,83.04
2023-02-09T03:53:07.295Z,83.44
2023-02-09T03:55:35.768Z,84.93
2023-02-09T03:58:03.833Z,84.30
2023-02-09T04:00:31.474Z,83.57
2023-02-09T04:02:59.231Z,83.18
2023-02-09T04:05:26.757Z,82.42
2023-02-09T04:07:55.598Z,81.46
2023-02-09T04:10:23.139Z,81.27
2023-02-09T04:12:50.659Z,80.96
2023-02-09T04:15:18.208Z,81.20
2023-02-09T04:17:45.717Z,82.36
2023-02-09T04:20:13.212Z,82.76
2023-02-09T04:22:40.910Z,83.66
2023-02-09T04:25:09.861Z,83.54
2023-02-09T04:27:37.363Z,83.73
2023-02-09T04:30:05.270Z,83.71
2023-02-09T04:32:32.763Z,84.29
2023-02-09T04:35:00.226Z,85.15
2023-02-09T04:37:27.887Z,85.41
2023-02-09T04:39:55.672Z,85.87
2023-02-09T04:42:24.758Z,86.39
2023-02-09T04:44:52.330Z,85.59
2023-02-09T04:47:19.824Z,84.88
2023-02-09T04:49:47.288Z,85.37
2023-02-09T04:52:14.826Z,85.54
2023-02-09T04:54:42.300Z,86.24
2023-02-09T04:57:27.790Z,85.93
2023-02-09T04:59:56.893Z,86.45
2023-02-09T05:02:24.387Z,86.79
2023-02-09T05:04:51.863Z,85.85
2023-02-09T05:07:19.398Z,86.53
2023-02-09T05:09:46.931Z,86.71
2023-02-09T05:12:14.456Z,86.45
2023-02-09T05:14:41.953Z,86.20
2023-02-09T05:17:10.831Z,85.87
2023-02-09T05:19:38.304Z,86.89
2023-02-09T05:22:05.827Z,87.17
2023-02-09T05:24:33.350Z,87.63
2023-02-09T05:27:00.843Z,87.73
2023-02-09T05:29:28.562Z,88.06
2023-02-09T05:31:56.099Z,87.98
2023-02-09T05:34:25.029Z,87.29
2023-02-09T05:36:52.506Z,87.47
2023-02-09T05:39:20.174Z,88.72
2023-02-09T05:42:05.511Z,88.52
2023-02-09T05:44:33.028Z,88.64
2023-02-09T05:47:00.500Z,88.13
2023-02-09T05:49:29.285Z,87.65
2023-02-09T05:51:56.779Z,87.75
2023-02-09T05:54:24.257Z,88.18
2023-02-09T05:56:51.768Z,88.72
2023-02-09T05:59:19.462Z,88.25
2023-02-09T06:01:47.159Z,88.00
2023-02-09T06:04:14.736Z,87.68
2023-02-09T06:06:43.854Z,87.45
2023-02-09T06:09:11.393Z,87.67
2023-02-09T06:11:38.855Z,88.00
2023-02-09T06:14:06.549Z,88.11
2023-02-09T06:16:34.108Z,88.53
2023-02-09T06:19:01.605Z,88.69
2023-02-09T06:21:29.328Z,87.28
2023-02-09T06:23:58.229Z,87.31
2023-02-09T06:26:25.804Z,87.31
2023-02-09T06:28:53.337Z,87.24
2023-02-09T06:31:20.938Z,87.71
2023-02-09T06:33:48.524Z,87.89
2023-02-09T06:36:16.046Z,87.73
2023-02-09T06:38:43.542Z,87.49
2023-02-09T06:41:12.402Z,87.28
2023-02-09T06:43:39.913Z,87.93
2023-02-09T06:46:08.072Z,87.21
2023-02-09T06:48:35.755Z,86.86
2023-02-09T06:51:03.228Z,87.39
2023-02-09T06:53:30.938Z,88.28
2023-02-09T06:56:01.282Z,87.38
2023-02-09T06:58:30.156Z,87.52
2023-02-09T07:01:02.916Z,87.45
2023-02-09T07:03:30.859Z,87.16
2023-02-09T07:06:04.024Z,87.08
2023-02-09T07:08:31.574Z,86.95
2023-02-09T07:11:02.581Z,87.07
2023-02-09T07:13:31.835Z,87.35
2023-02-09T07:16:08.561Z,87.63
2023-02-09T07:18:36.324Z,88.09
2023-02-09T07:21:05.650Z,88.47
2023-02-09T07:23:33.308Z,88.84
2023-02-09T07:26:03.331Z,88.66
2023-02-09T07:28:32.897Z,88.43
2023-02-09T07:31:04.449Z,88.10
2023-02-09T07:33:32.297Z,88.20
2023-02-09T07:35:59.890Z,88.10
2023-02-09T07:38:27.579Z,88.15
2023-02-09T07:40:55.110Z,88.48
2023-02-09T07:43:22.593Z,88.68
2023-02-09T07:45:51.555Z,88.21
2023-02-09T07:48:19.095Z,87.97
2023-02-09T07:50:49.886Z,87.87
2023-02-09T07:53:17.483Z,87.82
2023-02-09T07:55:45.250Z,87.65
2023-02-09T07:58:12.908Z,86.63
2023-02-09T08:00:40.380Z,86.25
2023-02-09T08:03:09.305Z,86.11
2023-02-09T08:05:42.424Z,86.06
2023-02-09T08:08:09.945Z,86.13
2023-02-09T08:10:37.746Z,86.94
2023-02-09T08:13:05.407Z,86.71
2023-02-09T08:15:38.864Z,85.70
2023-02-09T08:18:12.905Z,85.92
2023-02-09T08:20:40.855Z,86.93
2023-02-09T08:23:10.549Z,86.96
2023-02-09T08:25:38.276Z,86.83
2023-02-09T08:28:06.415Z,86.43
2023-02-09T08:30:34.943Z,86.70
2023-02-09T08:33:02.881Z,86.34
2023-02-09T08:35:31.912Z,86.26
2023-02-09T08:38:03.428Z,86.24
2023-02-09T08:40:31.340Z,85.58
2023-02-09T08:42:58.836Z,84.78
2023-02-09T08:45:26.404Z,84.74
2023-02-09T08:47:53.904Z,84.61
2023-02-09T08:50:21.397Z,84.15
2023-02-09T08:52:51.255Z,83.19
2023-02-09T08:55:18.780Z,81.63
2023-02-09T08:57:46.292Z,81.55
2023-02-09T09:00:15.173Z,80.27
2023-02-09T09:02:42.783Z,80.36
2023-02-09T09:05:10.381Z,81.17
2023-02-09T09:07:37.932Z,81.04
2023-02-09T09:10:09.197Z,81.54
2023-02-09T09:12:36.975Z,81.55
2023-02-09T09:15:04.949Z,81.27
2023-02-09T09:17:32.481Z,81.28
2023-02-09T09:20:00.004Z,80.69
2023-02-09T09:22:27.541Z,80.43
2023-02-09T09:24:55.406Z,80.60
2023-02-09T09:27:26.855Z,80.18
2023-02-09T09:29:54.571Z,79.19
2023-02-09T09:32:24.582Z,78.37
2023-02-09T09:34:54.059Z,78.38
2023-02-09T09:37:21.673Z,76.95
2023-02-09T09:39:49.877Z,76.51
2023-02-09T09:42:25.426Z,76.40
2023-02-09T09:44:53.478Z,75.85
2023-02-09T09:47:23.601Z,75.88
2023-02-09T09:49:51.133Z,76.17
2023-02-09T09:52:30.286Z,75.23
2023-02-09T09:54:58.372Z,73.81
2023-02-09T09:57:29.494Z,74.41
2023-02-09T09:59:57.860Z,73.78
2023-02-09T10:02:28.193Z,73.96
2023-02-09T10:04:57.425Z,73.93
2023-02-09T10:07:31.501Z,73.63
2023-02-09T10:10:03.034Z,72.57
2023-02-09T10:12:37.356Z,72.39
2023-02-09T10:15:18.999Z,71.92
2023-02-09T10:17:46.519Z,70.42
2023-02-09T10:20:14.518Z,70.24
2023-02-09T10:22:44.914Z,70.65
2023-02-09T10:25:38.815Z,70.86
2023-02-09T10:28:19.777Z,70.29
2023-02-09T10:30:48.016Z,69.91
2023-02-09T10:33:16.085Z,70.44
2023-02-09T10:35:46.293Z,69.75
2023-02-09T10:38:17.442Z,69.19
2023-02-09T10:40:47.448Z,68.83
2023-02-09T10:43:23.240Z,68.99
2023-02-09T10:45:54.878Z,68.11
2023-02-09T10:48:23.128Z,67.43
2023-02-09T10:50:52.923Z,66.95
2023-02-09T10:53:23.928Z,67.38
2023-02-09T10:55:52.343Z,66.46
2023-02-09T10:58:26.841Z,66.91
2023-02-09T11:01:00.902Z,67.39
2023-02-09T11:03:29.162Z,67.37
2023-02-09T11:06:02.776Z,67.29
2023-02-09T11:08:38.899Z,66.79
2023-02-09T11:11:09.045Z,66.67
2023-02-09T11:13:37.975Z,67.27
2023-02-09T11:16:21.567Z,66.18
2023-02-09T11:18:54.721Z,66.02
2023-02-09T11:21:30.435Z,66.76
2023-02-09T11:24:01.845Z,66.96
2023-02-09T11:26:37.374Z,67.09
2023-02-09T11:29:11.381Z,65.82
2023-02-09T11:31:48.135Z,65.90
2023-02-09T11:34:28.989Z,65.33
2023-02-09T11:37:02.011Z,65.66
2023-02-09T11:39:38.435Z,65.06
2023-02-09T11:42:25.824Z,65.11
2023-02-09T11:44:57.404Z,64.92
2023-02-09T11:47:29.498Z,64.56
2023-02-09T11:50:00.467Z,65.31
2023-02-09T11:52:31.334Z,65.88
2023-02-09T11:55:01.965Z,65.39
2023-02-09T11:57:34.743Z,64.46
2023-02-09T12:00:06.688Z,64.58
2023-02-09T12:02:46.092Z,63.79
2023-02-09T12:05:17.829Z,64.20
2023-02-09T12:07:56.158Z,64.62
2023-02-09T12:10:28.606Z,63.98
2023-02-09T12:13:00.009Z,63.91
2023-02-09T12:15:31.827Z,64.61
2023-02-09T12:18:02.107Z,63.23
2023-02-09T12:20:31.544Z,63.19
2023-02-09T12:23:02.108Z,61.92
2023-02-09T12:25:51.424Z,62.56
2023-02-09T12:28:40.330Z,62.78
2023-02-09T12:31:21.803Z,61.96
2023-02-09T12:34:10.719Z,60.56
2023-02-09T12:36:38.345Z,61.80
2023-02-09T12:39:24.185Z,61.61
2023-02-09T12:42:37.522Z,60.75
2023-02-09T12:45:31.652Z,61.09
2023-02-09T12:48:01.881Z,61.36
2023-02-09T12:50:36.760Z,62.35
2023-02-09T12:53:34.492Z,62.65
2023-02-09T12:56:04.795Z,62.17
2023-02-09T12:58:37.130Z,62.01
2023-02-09T13:01:04.804Z,60.85
2023-02-09T13:03:41.769Z,61.48
2023-02-09T13:06:24.059Z,60.55
2023-02-09T13:08:54.480Z,60.59
2023-02-09T13:11:30.542Z,62.28
2023-02-09T13:13:59.497Z,61.51
2023-02-09T13:16:38.264Z,61.21
2023-02-09T13:19:16.077Z,60.54
2023-02-09T13:21:53.214Z,60.53
2023-02-09T13:24:23.700Z,61.20
2023-02-09T13:26:52.752Z,60.73
2023-02-09T13:29:22.470Z,60.54
2023-02-09T13:31:58.048Z,60.02
2023-02-09T13:34:32.465Z,60.55
2023-02-09T13:37:07.683Z,60.31
2023-02-09T13:39:38.269Z,59.95
2023-02-09T13:42:19.767Z,59.82
2023-02-09T13:44:48.956Z,60.73
2023-02-09T13:47:17.106Z,60.63
2023-02-09T13:49:56.497Z,60.31
2023-02-09T13:52:26.617Z,59.89
2023-02-09T13:54:54.901Z,59.14
2023-02-09T13:57:31.975Z,59.08
2023-02-09T14:00:06.139Z,59.07
2023-02-09T14:02:36.123Z,59.88
2023-02-09T14:05:06.806Z,60.08
2023-02-09T14:07:36.194Z,59.54
2023-02-09T14:10:06.653Z,59.32
2023-02-09T14:12:55.581Z,58.95
2023-02-09T14:15:45.517Z,58.61
2023-02-09T14:18:41.484Z,58.30
2023-02-09T14:21:27.583Z,59.04
2023-02-09T14:24:21.027Z,59.67
2023-02-09T14:26:54.525Z,58.70
2023-02-09T14:29:27.680Z,58.97
2023-02-09T14:31:57.155Z,58.73
2023-02-09T14:34:29.487Z,58.37
2023-02-09T14:37:00.321Z,58.34
2023-02-09T14:39:31.073Z,58.06
2023-02-09T14:42:01.464Z,59.44
2023-02-09T14:44:29.632Z,59.73
2023-02-09T14:46:58.744Z,59.81
2023-02-09T14:49:26.993Z,59.14
2023-02-09T14:52:05.861Z,59.40
2023-02-09T14:54:35.736Z,59.77
2023-02-09T14:57:03.805Z,59.68
2023-02-09T14:59:31.764Z,58.90
2023-02-09T15:01:59.306Z,59.11
2023-02-09T15:04:26.989Z,60.50
2023-02-09T15:07:01.261Z,59.56
2023-02-09T15:09:35.245Z,59.51
2023-02-09T15:12:06.369Z,59.40
2023-02-09T15:14:36.882Z,59.03
2023-02-09T15:17:14.513Z,59.27
2023-02-09T15:19:42.487Z,59.89
2023-02-09T15:22:13.504Z,59.68
2023-02-09T15:24:42.689Z,59.83
2023-02-09T15:27:15.091Z,59.01
2023-02-09T15:29:42.635Z,59.99
2023-02-09T15:32:14.731Z,59.49
2023-02-09T15:34:42.430Z,60.64
2023-02-09T15:37:17.233Z,61.57
2023-02-09T15:39:46.212Z,61.68
2023-02-09T15:42:33.791Z,61.86
2023-02-09T15:45:35.705Z,61.45
2023-02-09T15:48:03.527Z,61.71
2023-02-09T15:50:32.829Z,61.53
2023-02-09T15:53:00.423Z,61.25
2023-02-09T15:55:29.564Z,61.36
2023-02-09T15:57:57.479Z,61.36
2023-02-09T16:00:27.049Z,61.88
2023-02-09T16:02:55.199Z,62.21
2023-02-09T16:05:23.736Z,62.62
2023-02-09T16:07:52.137Z,63.22
2023-02-09T16:10:22.981Z,63.38
2023-02-09T16:12:52.343Z,63.67
2023-02-09T16:15:21.809Z,63.68
2023-02-09T16:17:49.835Z,64.28
2023-02-09T16:20:17.800Z,63.91
2023-02-09T16:22:47.232Z,64.28
2023-02-09T16:25:19.991Z,64.43
2023-02-09T16:27:47.539Z,64.93
2023-02-09T16:30:21.956Z,65.11
2023-02-09T16:32:49.785Z,65.11
2023-02-09T16:35:18.227Z,65.71
2023-02-09T16:37:47.989Z,66.45
2023-02-09T16:40:23.329Z,66.66
2023-02-09T16:42:51.128Z,66.36
2023-02-09T16:45:23.328Z,66.87
2023-02-09T16:47:54.851Z,67.17
2023-02-09T16:50:24.908Z,67.68
2023-02-09T16:52:53.806Z,67.70
2023-02-09T16:55:25.120Z,68.05
2023-02-09T16:57:54.756Z,68.39
2023-02-09T17:00:25.369Z,68.82
2023-02-09T17:02:54.874Z,68.67
2023-02-09T17:05:25.854Z,69.04
2023-02-09T17:07:55.551Z,68.93
2023-02-09T17:10:25.740Z,69.41
2023-02-09T17:12:53.868Z,69.75
2023-02-09T17:15:30.728Z,70.76
2023-02-09T17:18:02.461Z,70.99
2023-02-09T17:20:34.466Z,71.16
2023-02-09T17:23:01.998Z,71.84
2023-02-09T17:25:29.592Z,71.44
2023-02-09T17:27:57.182Z,71.65
2023-02-09T17:30:26.065Z,71.61
2023-02-09T17:32:59.408Z,71.72
2023-02-09T17:35:52.930Z,72.26
2023-02-09T17:38:21.219Z,72.28
2023-02-09T17:40:48.794Z,72.40
2023-02-09T17:43:16.234Z,72.85
2023-02-09T17:45:48.911Z,73.07
2023-02-09T17:48:17.358Z,72.72
2023-02-09T17:50:46.333Z,72.56
2023-02-09T17:53:16.249Z,72.53
2023-02-09T17:55:45.024Z,72.89
2023-02-09T17:58:14.249Z,72.23
2023-02-09T18:00:42.673Z,72.21
2023-02-09T18:03:16.793Z,72.76
2023-02-09T18:05:45.375Z,72.44
2023-02-09T18:08:16.612Z,73.31
2023-02-09T18:10:44.283Z,73.81
2023-02-09T18:13:17.236Z,74.67
2023-02-09T18:15:45.369Z,75.11
2023-02-09T18:18:14.674Z,74.45
2023-02-09T18:20:43.761Z,75.13
2023-02-09T18:23:14.252Z,75.00
2023-02-09T18:25:46.275Z,75.03
2023-02-09T18:28:16.233Z,74.47
2023-02-09T18:30:46.957Z,75.10
2023-02-09T18:33:18.538Z,74.76
2023-02-09T18:35:46.491Z,75.32
2023-02-09T18:38:15.648Z,75.71
2023-02-09T18:40:43.291Z,76.04
2023-02-09T18:43:14.461Z,76.25
2023-02-09T18:45:41.970Z,75.89
2023-02-09T18:48:10.105Z,75.82
2023-02-09T18:50:40.071Z,75.91
2023-02-09T18:53:07.662Z,75.22
2023-02-09T18:55:35.661Z,75.84
2023-02-09T18:58:04.911Z,75.71
2023-02-09T19:00:32.682Z,76.46
2023-02-09T19:03:00.661Z,77.12
2023-02-09T19:05:30.088Z,76.79
2023-02-09T19:07:59.564Z,76.40
2023-02-09T19:10:29.506Z,76.98
2023-02-09T19:12:58.788Z,76.85
2023-02-09T19:15:26.575Z,76.57
2023-02-09T19:17:56.729Z,76.64
2023-02-09T19:20:27.017Z,76.90
2023-02-09T19:22:55.304Z,76.61
2023-02-09T19:25:26.759Z,76.24
2023-02-09T19:27:55.065Z,76.47
2023-02-09T19:30:25.121Z,76.54
2023-02-09T19:32:54.424Z,77.65
2023-02-09T19:35:23.042Z,78.21
2023-02-09T19:37:52.207Z,77.68
2023-02-09T19:40:27.973Z,77.22
2023-02-09T19:42:57.769Z,77.34
2023-02-09T19:45:25.523Z,77.11
2023-02-09T19:47:53.366Z,77.14
2023-02-09T19:50:21.478Z,77.01
2023-02-09T19:52:50.301Z,78.40
2023-02-09T19:55:18.360Z,78.58
2023-02-09T19:57:46.375Z,78.66
2023-02-09T20:00:18.523Z,79.51
2023-02-09T20:02:46.492Z,79.65
2023-02-09T20:05:16.098Z,79.64
2023-02-09T20:07:44.279Z,79.28
2023-02-09T20:10:12.048Z,79.41
2023-02-09T20:12:39.881Z,79.34
2023-02-09T20:15:08.076Z,79.38
2023-02-09T20:17:37.236Z,79.34
2023-02-09T20:20:05.650Z,80.94
2023-02-09T20:22:36.906Z,81.96
2023-02-09T20:25:04.752Z,81.66
2023-02-09T20:27:32.448Z,82.02
2023-02-09T20:30:02.589Z,80.65
2023-02-09T20:32:30.712Z,80.73
2023-02-09T20:35:02.074Z,79.84
2023-02-09T20:37:32.361Z,79.66
2023-02-09T20:40:01.639Z,79.66
2023-02-09T20:42:46.971Z,79.73
2023-02-09T20:45:33.233Z,80.24
2023-02-09T20:48:01.271Z,81.03
2023-02-09T20:50:32.800Z,81.35
2023-02-09T20:53:01.461Z,81.44
2023-02-09T20:55:30.509Z,81.72
2023-02-09T20:57:58.315Z,81.72
2023-02-09T21:00:26.065Z,82.15
2023-02-09T21:02:53.855Z,82.66
2023-02-09T21:05:21.749Z,82.12
2023-02-09T21:07:52.139Z,82.35
2023-02-09T21:10:19.883Z,81.30
2023-02-09T21:12:47.623Z,81.37
2023-02-09T21:15:15.517Z,81.00
2023-02-09T21:17:47.799Z,81.32
2023-02-09T21:20:15.958Z,81.41
2023-02-09T21:22:43.811Z,80.98
2023-02-09T21:25:13.889Z,81.17
2023-02-09T21:27:41.712Z,81.79
2023-02-09T21:30:10.412Z,81.63
2023-02-09T21:32:38.477Z,81.91
2023-02-09T21:35:10.270Z,81.72
2023-02-09T21:37:39.179Z,81.71
2023-02-09T21:40:09.879Z,82.76
2023-02-09T21:42:39.519Z,82.42
2023-02-09T21:45:08.110Z,82.04
2023-02-09T21:47:38.464Z,81.69
2023-02-09T21:50:08.322Z,81.13
2023-02-09T21:52:36.309Z,81.94
2023-02-09T21:55:04.109Z,81.53
2023-02-09T21:57:31.930Z,81.84
2023-02-09T22:00:05.345Z,81.74
2023-02-09T22:02:33.063Z,82.30
2023-02-09T22:05:00.730Z,82.97
2023-02-09T22:07:28.853Z,82.88
2023-02-09T22:09:56.528Z,82.89
2023-02-09T22:12:24.225Z,83.31
2023-02-09T22:14:52.048Z,83.71
2023-02-09T22:17:21.074Z,83.78
2023-02-09T22:19:48.633Z,83.88
2023-02-09T22:22:16.297Z,83.95
2023-02-09T22:24:44.009Z,84.64
2023-02-09T22:27:11.638Z,84.78
2023-02-09T22:29:39.398Z,84.63
2023-02-09T22:32:07.054Z,84.48
2023-02-09T22:34:36.144Z,83.57
2023-02-09T22:37:04.280Z,83.37
2023-02-09T22:39:32.411Z,83.87
2023-02-09T22:42:00.797Z,85.00
2023-02-09T22:44:30.003Z,85.66
2023-02-09T22:46:57.897Z,85.78
2023-02-09T22:49:25.789Z,85.41
2023-02-09T22:51:54.858Z,85.94
2023-02-09T22:54:24.359Z,85.78
2023-02-09T22:56:53.566Z,86.25
2023-02-09T22:59:23.896Z,86.04
2023-02-09T23:01:53.207Z,86.37
2023-02-09T23:04:21.170Z,86.12
2023-02-09T23:06:51.566Z,85.62
2023-02-09T23:09:21.933Z,85.86
2023-02-09T23:11:49.568Z,85.27
2023-02-09T23:14:17.780Z,85.27
2023-02-09T23:16:46.457Z,85.57
2023-02-09T23:19:16.046Z,86.10
2023-02-09T23:21:45.504Z,86.26
2023-02-09T23:24:14.006Z,86.27
2023-02-09T23:26:43.371Z,86.58
2023-02-09T23:29:13.347Z,86.95
2023-02-09T23:31:42.918Z,86.57
2023-02-09T23:34:13.354Z,86.24
2023-02-09T23:36:41.138Z,86.95
2023-02-09T23:39:08.878Z,87.47
2023-02-09T23:41:39.047Z,88.67
2023-02-09T23:44:08.085Z,89.22
2023-02-09T23:46:37.474Z,88.55
2023-02-09T23:49:05.086Z,88.31
2023-02-09T23:51:34.378Z,87.31
2023-02-09T23:54:04.890Z,87.09
2023-02-09T23:56:36.810Z,86.93
2023-02-09T23:59:05.357Z,86.56
